Friday, November 24, 2017, 8:15 AM EST
Back to Local

KDCA, Washington National Airport

Location: Arlington, VA, United States Lat: 38.85
Local Time: 8:15 AM EST (13:15 GMT) Lon: -77.033
Time Zone: US/Eastern Elev: 16 ft

Show me the last for .
Show Decoded

2017-11-24 07:52 METAR KDCA 241252Z 00000KT 10SM CLR 02/00 A3010 RMK AO2 SLP192 T00170000 =
2017-11-24 06:52 METAR KDCA 241152Z 22004KT 10SM FEW250 01/M02 A3009 RMK AO2 SLP187 T00061017
                 10022 20000 50002 =
2017-11-24 05:52 METAR KDCA 241052Z 21005KT 10SM CLR 00/M02 A3009 RMK AO2 SLP187 T00001017 =
2017-11-24 04:52 METAR KDCA 240952Z 24004KT 10SM CLR 01/M02 A3009 RMK AO2 SLP189 T00111017 =
2017-11-24 03:52 METAR KDCA 240852Z 22003KT 10SM CLR 01/M02 A3008 RMK AO2 SLP185 T00061017 50001
                 =
2017-11-24 02:52 METAR KDCA 240752Z 23004KT 10SM CLR 01/M02 A3009 RMK AO2 SLP188 T00111017 =
2017-11-24 01:52 METAR KDCA 240652Z 22004KT 10SM CLR 02/M02 A3008 RMK AO2 SLP184 T00171022 =
2017-11-24 00:52 METAR KDCA 240552Z 22003KT 10SM CLR 02/M02 A3008 RMK AO2 SLP184 T00221022 10050
                 20017 58004 =
2017-11-23 23:52 METAR KDCA 240452Z 00000KT 10SM CLR 03/M02 A3009 RMK AO2 SLP188 T00281022
                 400830000 =
2017-11-23 22:52 METAR KDCA 240352Z 22004KT 10SM CLR 03/M03 A3008 RMK AO2 SLP186 T00331028 =
2017-11-23 21:52 METAR KDCA 240252Z 22003KT 10SM CLR 03/M03 A3009 RMK AO2 SLP188 T00281028 53008
                 =
2017-11-23 20:52 METAR KDCA 240152Z 22003KT 10SM CLR 03/M03 A3008 RMK AO2 SLP187 T00331033 =
2017-11-23 19:52 METAR KDCA 240052Z 19003KT 10SM CLR 04/M03 A3007 RMK AO2 SLP181 T00391028 =
2017-11-23 18:52 METAR KDCA 232352Z 20003KT 10SM CLR 05/M03 A3007 RMK AO2 SLP181 T00501028 10083
                 20044 58004 =
2017-11-23 17:52 METAR KDCA 232252Z 29004KT 10SM FEW250 06/M06 A3008 RMK AO2 SLP185 T00561061 =
2017-11-23 16:52 METAR KDCA 232152Z 26006KT 10SM FEW250 06/M06 A3008 RMK AO2 SLP186 T00611061 =
2017-11-23 15:52 METAR KDCA 232052Z 00000KT 10SM FEW250 07/M06 A3008 RMK AO2 SLP185 T00721061
                 56012 =
2017-11-23 14:52 METAR KDCA 231952Z 00000KT 10SM FEW250 08/M06 A3008 RMK AO2 SLP186 T00781056 =
2017-11-23 13:52 METAR KDCA 231852Z VRB03KT 10SM FEW250 07/M06 A3010 RMK AO2 SLP193 T00721061 =
2017-11-23 12:52 METAR KDCA 231752Z 00000KT 10SM FEW250 07/M06 A3011 RMK AO2 SLP197 T00721056
                 10072 20000 58030 =
2017-11-23 11:52 METAR KDCA 231652Z 30008KT 10SM FEW250 06/M06 A3014 RMK AO2 SLP205 T00561056 =
2017-11-23 10:52 METAR KDCA 231552Z VRB06KT 10SM FEW250 05/M04 A3018 RMK AO2 SLP220 T00501044 =
2017-11-23 09:52 METAR KDCA 231452Z 35008KT 10SM SCT250 04/M04 A3020 RMK AO2 SLP227 T00391044
                 50004 =
2017-11-23 08:52 METAR KDCA 231352Z 33007KT 10SM FEW160 SCT250 02/M06 A3022 RMK AO2 SLP231
                 T00171056 =

Support USWX by starting your Amazon purchase here.